createdAt,value
2023-03-11T00:00:47.110Z,4.8
2023-03-11T00:05:44.581Z,3.3
2023-03-11T00:10:43.324Z,2.7
2023-03-11T00:15:42.508Z,3.0
2023-03-11T00:20:41.619Z,2.4
2023-03-11T00:25:40.790Z,4.3
2023-03-11T00:30:42.214Z,3.2
2023-03-11T00:35:39.058Z,2.0
2023-03-11T00:40:38.096Z,2.6
2023-03-11T00:50:36.399Z,3.1
2023-03-11T00:55:35.451Z,3.5
2023-03-11T01:00:34.545Z,3.3
2023-03-11T01:05:33.688Z,3.0
2023-03-11T01:10:32.877Z,3.9
2023-03-11T01:15:31.999Z,3.3
2023-03-11T01:25:30.301Z,2.7
2023-03-11T01:30:29.226Z,2.2
2023-03-11T01:35:28.401Z,3.4
2023-03-11T01:40:29.832Z,3.0
2023-03-11T01:45:26.644Z,2.5
2023-03-11T01:50:25.592Z,3.9
2023-03-11T01:55:24.765Z,2.7
2023-03-11T02:00:23.831Z,2.2
2023-03-11T02:05:22.905Z,2.3
2023-03-11T02:10:22.026Z,1.6
2023-03-11T02:15:21.077Z,1.5
2023-03-11T02:25:19.319Z,1.6
2023-03-11T02:30:18.380Z,1.4
2023-03-11T02:35:17.509Z,1.9
2023-03-11T02:40:16.591Z,2.0
2023-03-11T02:45:15.767Z,1.9
2023-03-11T02:50:14.930Z,1.2
2023-03-11T02:55:13.836Z,2.0
2023-03-11T03:00:12.975Z,3.6
2023-03-11T03:05:11.979Z,3.5
2023-03-11T03:10:11.135Z,2.7
2023-03-11T03:15:10.171Z,2.3
2023-03-11T03:20:09.314Z,1.9
2023-03-11T03:25:08.340Z,2.5
2023-03-11T03:30:07.498Z,1.6
2023-03-11T03:35:06.554Z,1.2
2023-03-11T03:40:05.705Z,1.3
2023-03-11T03:45:04.728Z,2.2
2023-03-11T03:50:03.821Z,1.1
2023-03-11T03:55:02.915Z,1.0
2023-03-11T04:00:02.271Z,1.5
2023-03-11T04:05:01.054Z,1.7
2023-03-11T04:10:00.195Z,1.1
2023-03-11T04:14:59.649Z,1.2
2023-03-11T04:19:58.416Z,1.8
2023-03-11T04:24:57.409Z,0.9
2023-03-11T04:29:56.546Z,1.4
2023-03-11T04:39:54.732Z,1.8
2023-03-11T04:44:53.775Z,1.2
2023-03-11T04:49:52.931Z,1.3
2023-03-11T04:54:52.004Z,2.2
2023-03-11T04:59:51.223Z,1.8
2023-03-11T05:04:50.220Z,1.3
2023-03-11T05:14:48.400Z,1.2
2023-03-11T05:24:46.550Z,1.4
2023-03-11T05:39:43.819Z,1.6
2023-03-11T05:44:42.976Z,1.3
2023-03-11T05:49:42.056Z,1.4
2023-03-11T05:54:41.178Z,1.0
2023-03-11T05:59:40.250Z,1.4
2023-03-11T06:04:39.561Z,1.7
2023-03-11T06:09:38.572Z,1.1
2023-03-11T06:14:37.697Z,1.3
2023-03-11T06:19:36.798Z,2.2
2023-03-11T06:24:35.990Z,1.6
2023-03-11T06:29:35.065Z,1.2
2023-03-11T06:34:36.596Z,1.8
2023-03-11T06:39:33.345Z,1.0
2023-03-11T06:44:34.499Z,1.3
2023-03-11T06:49:31.591Z,1.7
2023-03-11T06:54:30.792Z,1.1
2023-03-11T06:59:29.956Z,1.6
2023-03-11T07:04:29.468Z,1.7
2023-03-11T07:09:28.308Z,1.8
2023-03-11T07:14:27.453Z,1.1
2023-03-11T07:19:26.632Z,0.8
2023-03-11T07:24:27.692Z,2.0
2023-03-11T07:29:24.789Z,2.2
2023-03-11T07:34:25.920Z,1.2
2023-03-11T07:39:25.153Z,1.7
2023-03-11T07:44:22.610Z,0.8
2023-03-11T07:49:21.275Z,1.5
2023-03-11T07:54:20.433Z,0.9
2023-03-11T07:59:19.499Z,1.7
2023-03-11T08:04:18.660Z,1.5
2023-03-11T08:09:19.851Z,1.3
2023-03-11T08:14:17.110Z,0.8
2023-03-11T08:24:15.528Z,0.9
2023-03-11T08:29:14.636Z,1.0
2023-03-11T08:34:13.867Z,0.7
2023-03-11T08:44:12.337Z,0.8
2023-03-11T08:49:11.458Z,1.2
2023-03-11T08:54:10.662Z,0.8
2023-03-11T08:59:09.938Z,0.9
2023-03-11T09:04:11.730Z,1.1
2023-03-11T09:09:08.499Z,0.7
2023-03-11T09:14:09.798Z,1.1
2023-03-11T09:19:09.234Z,0.7
2023-03-11T09:24:06.372Z,1.1
2023-03-11T09:29:05.624Z,1.0
2023-03-11T09:34:04.969Z,1.2
2023-03-11T09:39:04.309Z,0.8
2023-03-11T09:44:03.806Z,0.9
2023-03-11T09:49:02.903Z,1.0
2023-03-11T09:54:02.221Z,1.3
2023-03-11T10:04:00.887Z,1.4
2023-03-11T10:09:00.161Z,0.7
2023-03-11T10:13:59.529Z,1.0
2023-03-11T10:18:58.872Z,1.5
2023-03-11T10:23:58.252Z,1.4
2023-03-11T10:28:57.658Z,1.0
2023-03-11T10:33:57.044Z,0.9
2023-03-11T10:38:56.442Z,1.1
2023-03-11T10:43:55.742Z,0.8
2023-03-11T10:48:55.169Z,1.2
2023-03-11T10:58:54.066Z,1.4
2023-03-11T11:03:53.422Z,0.7
2023-03-11T11:08:52.948Z,0.8
2023-03-11T11:13:52.382Z,1.0
2023-03-11T11:18:51.875Z,1.1
2023-03-11T11:23:53.773Z,0.8
2023-03-11T11:28:50.796Z,1.0
2023-03-11T11:33:50.162Z,0.9
2023-03-11T11:38:49.645Z,0.5
2023-03-11T11:43:49.127Z,0.7
2023-03-11T11:48:48.548Z,0.9
2023-03-11T11:53:50.528Z,1.2
2023-03-11T11:58:47.416Z,2.4
2023-03-11T12:03:46.904Z,1.1
2023-03-11T12:08:46.310Z,1.7
2023-03-11T12:13:47.724Z,1.1
2023-03-11T12:18:45.205Z,0.7
2023-03-11T12:23:44.714Z,0.9
2023-03-11T12:28:44.136Z,1.1
2023-03-11T12:33:43.541Z,1.3
2023-03-11T12:38:42.989Z,1.4
2023-03-11T12:43:42.589Z,0.9
2023-03-11T12:48:43.920Z,0.7
2023-03-11T12:53:41.423Z,0.8
2023-03-11T13:03:40.330Z,0.7
2023-03-11T13:08:39.750Z,1.0
2023-03-11T13:13:39.284Z,1.3
2023-03-11T13:18:38.755Z,0.8
2023-03-11T13:23:38.274Z,0.9
2023-03-11T13:28:37.794Z,0.6
2023-03-11T13:33:37.257Z,0.9
2023-03-11T13:38:36.710Z,0.7
2023-03-11T13:43:38.764Z,1.2
2023-03-11T13:48:37.514Z,1.0
2023-03-11T13:53:35.193Z,0.7
2023-03-11T14:03:34.019Z,1.0
2023-03-11T14:08:33.435Z,1.1
2023-03-11T14:13:33.006Z,0.8
2023-03-11T14:18:32.434Z,1.4
2023-03-11T14:23:31.944Z,0.6
2023-03-11T14:28:31.377Z,0.9
2023-03-11T14:33:30.830Z,0.7
2023-03-11T14:43:31.730Z,0.9
2023-03-11T14:48:29.074Z,1.0
2023-03-11T14:53:28.560Z,0.6
2023-03-11T15:03:27.403Z,0.7
2023-03-11T15:08:26.769Z,1.0
2023-03-11T15:13:26.171Z,0.8
2023-03-11T15:18:25.535Z,0.7
2023-03-11T15:23:25.004Z,0.8
2023-03-11T15:28:24.456Z,1.2
2023-03-11T15:33:23.880Z,1.0
2023-03-11T15:38:23.208Z,0.8
2023-03-11T15:43:22.655Z,0.9
2023-03-11T15:48:21.919Z,0.8
2023-03-11T15:53:21.329Z,0.9
2023-03-11T15:58:20.578Z,0.8
2023-03-11T16:03:19.946Z,1.0
2023-03-11T16:08:19.240Z,0.7
2023-03-11T16:18:17.970Z,0.8
2023-03-11T16:28:16.559Z,1.1
2023-03-11T16:33:15.773Z,0.6
2023-03-11T16:38:17.276Z,1.0
2023-03-11T16:43:14.319Z,0.8
2023-03-11T16:53:12.962Z,1.2
2023-03-11T16:58:12.153Z,0.9
2023-03-11T17:03:11.671Z,1.5
2023-03-11T17:08:10.834Z,1.1
2023-03-11T17:13:10.236Z,0.9
2023-03-11T17:18:09.519Z,1.2
2023-03-11T17:23:08.962Z,0.9
2023-03-11T17:33:09.621Z,1.1
2023-03-11T17:38:06.815Z,1.4
2023-03-11T17:43:08.563Z,1.8
2023-03-11T17:53:04.956Z,1.3
2023-03-11T17:58:04.191Z,1.5
2023-03-11T18:08:02.821Z,1.2
2023-03-11T18:13:02.226Z,1.4
2023-03-11T18:18:01.535Z,1.9
2023-03-11T18:23:00.810Z,1.3
2023-03-11T18:28:00.143Z,1.1
2023-03-11T18:32:59.510Z,1.4
2023-03-11T18:37:58.770Z,1.6
2023-03-11T18:42:58.219Z,1.5
2023-03-11T18:47:57.473Z,1.7
2023-03-11T18:52:56.871Z,1.5
2023-03-11T19:12:54.158Z,1.4
2023-03-11T19:18:05.912Z,1.7
2023-03-11T19:22:52.757Z,2.2
2023-03-11T19:27:52.023Z,1.7
2023-03-11T19:32:51.699Z,3.4
2023-03-11T19:37:50.735Z,1.3
2023-03-11T19:42:50.104Z,1.8
2023-03-11T19:47:49.411Z,1.9
2023-03-11T19:57:48.198Z,1.8
2023-03-11T20:02:47.559Z,4.6
2023-03-11T20:07:46.808Z,7.7
2023-03-11T20:13:01.157Z,4.4
2023-03-11T20:17:45.576Z,5.4
2023-03-11T20:22:47.455Z,21.7
2023-03-11T20:27:44.421Z,10.3
2023-03-11T20:32:43.659Z,27.9
2023-03-11T20:37:43.096Z,10.7
2023-03-11T20:42:42.412Z,8.8
2023-03-11T20:47:41.723Z,11.9
2023-03-11T20:52:41.039Z,11.1
2023-03-11T20:57:40.681Z,28.0
2023-03-11T21:02:40.058Z,29.1
2023-03-11T21:07:39.366Z,12.3
2023-03-11T21:12:38.675Z,7.5
2023-03-11T21:17:38.250Z,3.9
2023-03-11T21:22:37.398Z,10.9
2023-03-11T21:27:36.906Z,8.3
2023-03-11T21:32:36.431Z,6.5
2023-03-11T21:37:35.950Z,3.5
2023-03-11T21:42:35.139Z,4.3
2023-03-11T21:47:34.821Z,8.0
2023-03-11T21:52:34.112Z,14.2
2023-03-11T21:57:33.449Z,8.3
2023-03-11T22:02:32.789Z,7.4
2023-03-11T22:07:32.180Z,19.1
2023-03-11T22:12:31.648Z,20.7
2023-03-11T22:17:31.129Z,10.2
2023-03-11T22:22:30.612Z,18.7
2023-03-11T22:27:30.144Z,27.5
2023-03-11T22:32:29.370Z,34.4
2023-03-11T22:37:28.883Z,52.6
2023-03-11T22:42:28.229Z,25.3
2023-03-11T22:47:27.783Z,15.5
2023-03-11T22:52:27.336Z,13.6
2023-03-11T22:57:26.661Z,6.9
2023-03-11T23:02:26.183Z,21.4
2023-03-11T23:07:25.718Z,12.9
2023-03-11T23:12:25.249Z,3.1
2023-03-11T23:17:24.676Z,3.7
2023-03-11T23:22:24.467Z,19.4
2023-03-11T23:27:23.677Z,35.5
2023-03-11T23:32:23.423Z,21.3
2023-03-11T23:37:22.696Z,81.8
2023-03-11T23:42:25.823Z,32.8
2023-03-11T23:47:21.836Z,22.6
2023-03-11T23:52:21.467Z,32.6
2023-03-11T23:57:20.797Z,37.6
